Time;durP1;ratioP1;P1;durP2;ratioP2;P2;SDS_P1;SDS_P2;PMS_P1;PMS_P2;Temp;Humidity;BMP_temperature;BMP_pressure;BME280_temperature;BME280_humidity;BME280_pressure;Samples;Min_cycle;Max_cycle;Signal;HPM_P1;HPM_P2
2022/05/28 00:01:28;;;;;;;5.53;2.50;;;;;;;;;;4942706;28;20066;-67
2022/05/28 00:03:57;;;;;;;6.10;2.80;;;;;;;;;;4945102;28;20043;-67
2022/05/28 00:06:24;;;;;;;6.10;2.83;;;;;;;;;;4943583;28;20041;-67
2022/05/28 00:08:50;;;;;;;8.20;3.35;;;;;;;;;;4941915;28;20059;-67
2022/05/28 00:11:21;;;;;;;12.65;3.67;;;;;;;;;;4940776;29;20054;-67
2022/05/28 00:13:48;;;;;;;4.88;2.78;;;;;;;;;;4936878;28;20058;-67
2022/05/28 00:16:14;;;;;;;6.63;2.55;;;;;;;;;;4935796;28;20040;-68
2022/05/28 00:21:21;;;;;;;5.90;3.05;;;;;;;;;;5114973;27;20398;-66
2022/05/28 00:23:46;;;;;;;6.70;2.92;;;;;;;;;;5064310;28;20060;-65
2022/05/28 00:26:13;;;;;;;6.05;2.97;;;;;;;;;;5078929;28;20039;-65
2022/05/28 00:28:39;;;;;;;7.18;3.00;;;;;;;;;;5081210;28;20024;-65
2022/05/28 00:31:05;;;;;;;8.52;3.25;;;;;;;;;;5083135;28;20036;-65
2022/05/28 00:33:30;;;;;;;10.43;3.22;;;;;;;;;;5082722;28;20032;-65
2022/05/28 00:35:57;;;;;;;8.75;3.10;;;;;;;;;;5081162;28;20032;-65
2022/05/28 00:38:24;;;;;;;5.22;2.50;;;;;;;;;;5083215;28;20032;-65
2022/05/28 00:40:51;;;;;;;5.82;2.83;;;;;;;;;;5083070;28;20046;-65
2022/05/28 00:43:17;;;;;;;6.97;3.08;;;;;;;;;;5083172;28;20093;-66
2022/05/28 00:45:45;;;;;;;8.00;3.17;;;;;;;;;;5081606;28;20051;-65
2022/05/28 00:48:15;;;;;;;4.43;2.72;;;;;;;;;;5083159;28;20582;-65
2022/05/28 00:50:40;;;;;;;5.43;2.65;;;;;;;;;;5080063;28;20023;-65
2022/05/28 00:53:06;;;;;;;8.05;2.80;;;;;;;;;;5083405;28;20013;-65
2022/05/28 00:55:34;;;;;;;7.20;2.80;;;;;;;;;;5082383;28;20111;-65
2022/05/28 00:58:03;;;;;;;6.78;3.10;;;;;;;;;;5083452;28;20068;-65
2022/05/28 01:00:29;;;;;;;7.15;3.20;;;;;;;;;;5074988;28;20417;-65
2022/05/28 01:02:57;;;;;;;7.70;3.22;;;;;;;;;;5084422;28;20043;-65
2022/05/28 01:05:48;;;;;;;7.40;2.60;;;;;;;;;;5090308;28;20146;-65
2022/05/28 01:08:37;;;;;;;6.55;3.20;;;;;;;;;;5087922;28;20051;-65
2022/05/28 01:11:21;;;;;;;6.57;3.42;;;;;;;;;;5085559;28;20047;-65
2022/05/28 01:13:55;;;;;;;6.60;3.10;;;;;;;;;;5075681;28;20413;-65
2022/05/28 01:16:29;;;;;;;10.32;3.75;;;;;;;;;;5083118;28;20062;-65
2022/05/28 01:19:17;;;;;;;5.85;2.83;;;;;;;;;;5081759;28;20040;-66
2022/05/28 01:21:47;;;;;;;8.27;3.13;;;;;;;;;;5104127;27;20059;-65
2022/05/28 01:24:37;;;;;;;10.73;3.28;;;;;;;;;;5095648;28;20042;-65
2022/05/28 01:27:07;;;;;;;6.32;3.13;;;;;;;;;;5086870;28;20760;-66
2022/05/28 01:29:42;;;;;;;7.93;3.22;;;;;;;;;;5084920;28;20031;-65
2022/05/28 01:32:09;;;;;;;7.43;2.88;;;;;;;;;;5092388;28;20040;-65
2022/05/28 01:34:35;;;;;;;8.90;3.40;;;;;;;;;;5087016;28;20443;-66
2022/05/28 01:37:04;;;;;;;7.57;2.85;;;;;;;;;;5090572;28;20056;-66
2022/05/28 01:39:30;;;;;;;8.73;3.33;;;;;;;;;;5086564;28;20028;-65
2022/05/28 01:41:56;;;;;;;10.00;3.28;;;;;;;;;;5083196;28;20082;-65
2022/05/28 01:44:23;;;;;;;8.23;3.10;;;;;;;;;;5082625;28;20028;-65
2022/05/28 01:46:49;;;;;;;6.25;2.95;;;;;;;;;;5075595;28;20107;-65
2022/05/28 01:49:18;;;;;;;7.68;3.30;;;;;;;;;;5087386;28;20034;-66
2022/05/28 01:51:48;;;;;;;6.90;3.00;;;;;;;;;;5081469;28;20036;-66
2022/05/28 01:54:17;;;;;;;8.68;2.95;;;;;;;;;;5089561;28;20127;-65
2022/05/28 01:56:46;;;;;;;7.47;2.90;;;;;;;;;;5076415;28;20489;-65
2022/05/28 01:59:15;;;;;;;7.95;3.25;;;;;;;;;;5094478;28;20020;-66
2022/05/28 02:01:41;;;;;;;7.85;3.05;;;;;;;;;;5089379;28;20058;-65
2022/05/28 02:04:08;;;;;;;5.68;3.05;;;;;;;;;;5070652;28;20033;-65
2022/05/28 02:06:36;;;;;;;7.95;3.20;;;;;;;;;;5082217;28;20111;-65
2022/05/28 02:09:05;;;;;;;6.50;3.17;;;;;;;;;;5088513;28;20477;-65
2022/05/28 02:11:47;;;;;;;8.05;3.40;;;;;;;;;;5085241;28;20644;-66
2022/05/28 02:14:26;;;;;;;10.50;3.25;;;;;;;;;;5089694;28;20040;-65
2022/05/28 02:17:19;;;;;;;7.68;3.38;;;;;;;;;;5084756;28;20754;-66
2022/05/28 02:19:58;;;;;;;6.38;3.30;;;;;;;;;;5074194;28;20075;-65
2022/05/28 02:22:53;;;;;;;7.00;3.30;;;;;;;;;;5082305;28;20093;-66
2022/05/28 02:25:29;;;;;;;6.93;3.03;;;;;;;;;;5074059;28;20082;-66
2022/05/28 02:27:55;;;;;;;10.98;3.33;;;;;;;;;;5078373;28;20501;-65
2022/05/28 02:30:21;;;;;;;6.93;3.17;;;;;;;;;;5077371;28;20036;-65
2022/05/28 02:32:47;;;;;;;7.03;2.95;;;;;;;;;;5088216;28;20073;-66
2022/05/28 02:35:12;;;;;;;8.95;3.50;;;;;;;;;;5087315;28;20055;-65
2022/05/28 02:37:38;;;;;;;7.75;3.50;;;;;;;;;;5089109;28;20032;-65
2022/05/28 02:40:04;;;;;;;10.57;3.58;;;;;;;;;;5085538;28;20028;-65
2022/05/28 02:42:30;;;;;;;9.65;3.33;;;;;;;;;;5087480;28;20114;-65
2022/05/28 02:44:55;;;;;;;10.15;3.40;;;;;;;;;;5086370;28;20028;-65
2022/05/28 02:47:20;;;;;;;5.90;3.38;;;;;;;;;;5085809;28;20092;-65
2022/05/28 02:49:46;;;;;;;6.90;3.58;;;;;;;;;;5087402;28;20128;-65
2022/05/28 02:52:11;;;;;;;7.90;3.55;;;;;;;;;;5086287;28;20036;-65
2022/05/28 02:54:37;;;;;;;8.50;3.60;;;;;;;;;;5088982;28;20032;-65
2022/05/28 02:57:04;;;;;;;5.00;3.20;;;;;;;;;;5086595;28;20028;-65
2022/05/28 02:59:30;;;;;;;12.43;4.15;;;;;;;;;;5086779;28;20032;-66
2022/05/28 03:01:55;;;;;;;9.55;3.65;;;;;;;;;;5085381;28;20040;-65
2022/05/28 03:04:21;;;;;;;12.82;3.30;;;;;;;;;;5083531;28;20039;-67
2022/05/28 03:06:46;;;;;;;7.90;3.30;;;;;;;;;;5086558;28;20039;-66
2022/05/28 03:09:13;;;;;;;11.57;3.33;;;;;;;;;;5087320;28;20056;-66
2022/05/28 03:11:39;;;;;;;7.57;3.22;;;;;;;;;;5086739;28;20032;-65
2022/05/28 03:14:05;;;;;;;8.38;3.58;;;;;;;;;;5094793;28;20036;-66
2022/05/28 03:16:30;;;;;;;7.97;3.47;;;;;;;;;;5076487;28;20036;-65
2022/05/28 03:18:56;;;;;;;10.73;4.10;;;;;;;;;;5083011;28;20032;-65
2022/05/28 03:21:21;;;;;;;8.13;3.63;;;;;;;;;;5085629;28;20036;-66
2022/05/28 03:23:50;;;;;;;9.50;4.07;;;;;;;;;;5083554;28;20032;-66
2022/05/28 03:26:19;;;;;;;8.43;3.60;;;;;;;;;;5086056;28;20016;-65
2022/05/28 03:28:45;;;;;;;8.57;4.38;;;;;;;;;;5086654;28;20533;-65
2022/05/28 03:31:11;;;;;;;7.88;3.47;;;;;;;;;;5084537;28;20621;-65
2022/05/28 03:33:36;;;;;;;8.20;3.67;;;;;;;;;;5086865;28;20089;-66
2022/05/28 03:36:02;;;;;;;8.40;3.85;;;;;;;;;;5084958;28;20045;-65
2022/05/28 03:38:27;;;;;;;6.88;3.88;;;;;;;;;;5086267;28;20024;-66
2022/05/28 03:40:53;;;;;;;9.50;3.65;;;;;;;;;;5087247;28;20081;-65
2022/05/28 03:43:19;;;;;;;10.07;3.90;;;;;;;;;;5086046;28;20397;-65
2022/05/28 03:45:44;;;;;;;10.25;4.10;;;;;;;;;;5086705;28;20035;-65
2022/05/28 03:48:11;;;;;;;10.57;4.00;;;;;;;;;;5086265;28;20036;-65
2022/05/28 03:50:36;;;;;;;9.45;4.05;;;;;;;;;;5085294;28;20465;-66
2022/05/28 03:53:02;;;;;;;7.45;3.83;;;;;;;;;;5085068;28;20020;-65
2022/05/28 03:55:27;;;;;;;10.85;4.70;;;;;;;;;;5086091;28;20047;-65
2022/05/28 03:57:53;;;;;;;9.02;4.50;;;;;;;;;;5087136;28;20062;-65
2022/05/28 04:00:19;;;;;;;7.75;4.07;;;;;;;;;;5086831;28;20078;-65
2022/05/28 04:02:44;;;;;;;9.40;3.85;;;;;;;;;;5083528;28;20127;-65
2022/05/28 04:05:10;;;;;;;11.45;4.55;;;;;;;;;;5083865;28;20031;-65
2022/05/28 04:07:36;;;;;;;8.10;3.95;;;;;;;;;;5084544;28;20051;-65
2022/05/28 04:10:03;;;;;;;11.45;4.30;;;;;;;;;;5085214;28;20580;-66
2022/05/28 04:12:28;;;;;;;10.18;4.20;;;;;;;;;;5085086;28;20028;-66
2022/05/28 04:14:53;;;;;;;12.38;4.53;;;;;;;;;;5093734;28;20020;-65
2022/05/28 04:17:19;;;;;;;12.88;4.78;;;;;;;;;;5087165;28;20048;-65
2022/05/28 04:19:44;;;;;;;9.43;4.35;;;;;;;;;;5084811;28;20482;-65
2022/05/28 04:22:09;;;;;;;10.80;4.75;;;;;;;;;;5082924;28;20491;-66
2022/05/28 04:24:35;;;;;;;9.38;4.55;;;;;;;;;;5084958;28;20025;-66
2022/05/28 04:27:00;;;;;;;11.68;4.38;;;;;;;;;;5077732;28;20079;-66
2022/05/28 04:29:26;;;;;;;8.30;3.85;;;;;;;;;;5085144;28;20436;-66
2022/05/28 04:31:51;;;;;;;8.90;4.20;;;;;;;;;;5086273;28;20029;-66
2022/05/28 04:34:16;;;;;;;10.82;4.45;;;;;;;;;;5086397;28;20527;-66
2022/05/28 04:36:42;;;;;;;7.63;3.90;;;;;;;;;;5085888;28;20495;-66
2022/05/28 04:39:07;;;;;;;8.55;4.38;;;;;;;;;;5086862;28;20054;-66
2022/05/28 04:41:32;;;;;;;9.68;4.85;;;;;;;;;;5085439;28;20031;-66
2022/05/28 04:43:58;;;;;;;8.75;4.43;;;;;;;;;;5085261;28;20580;-66
2022/05/28 04:46:23;;;;;;;9.77;4.80;;;;;;;;;;5083812;28;20033;-66
2022/05/28 04:48:48;;;;;;;14.82;4.63;;;;;;;;;;5086302;28;20535;-66
2022/05/28 04:51:14;;;;;;;12.27;5.20;;;;;;;;;;5086133;28;20036;-66
2022/05/28 04:53:39;;;;;;;10.20;5.05;;;;;;;;;;5084297;28;20029;-66
2022/05/28 04:56:05;;;;;;;10.48;4.40;;;;;;;;;;5084243;28;20026;-66
2022/05/28 04:58:31;;;;;;;11.48;4.50;;;;;;;;;;5086160;28;20055;-66
2022/05/28 05:00:57;;;;;;;10.82;4.35;;;;;;;;;;5081271;28;20424;-66
2022/05/28 05:03:22;;;;;;;6.47;4.25;;;;;;;;;;5083568;28;20048;-67
2022/05/28 05:05:47;;;;;;;8.15;4.30;;;;;;;;;;5082280;28;20020;-66
2022/05/28 05:08:13;;;;;;;10.30;4.38;;;;;;;;;;5089753;28;20028;-66
2022/05/28 05:10:38;;;;;;;13.35;5.07;;;;;;;;;;5088593;28;20115;-66
2022/05/28 05:13:05;;;;;;;9.00;5.05;;;;;;;;;;5094806;28;20088;-66
2022/05/28 05:15:30;;;;;;;10.57;4.78;;;;;;;;;;5094790;28;20036;-66
2022/05/28 05:17:56;;;;;;;9.93;5.13;;;;;;;;;;5090498;28;20050;-66
2022/05/28 05:20:22;;;;;;;13.82;5.30;;;;;;;;;;5088039;28;20541;-66
2022/05/28 05:22:47;;;;;;;11.95;5.47;;;;;;;;;;5084839;28;20115;-66
2022/05/28 05:25:14;;;;;;;12.68;5.82;;;;;;;;;;5083107;28;20070;-66
2022/05/28 05:27:40;;;;;;;13.55;5.80;;;;;;;;;;5090130;28;20040;-66
2022/05/28 05:30:06;;;;;;;11.85;5.82;;;;;;;;;;5089241;28;20028;-66
2022/05/28 05:32:31;;;;;;;13.00;6.05;;;;;;;;;;5090655;28;20495;-66
2022/05/28 05:34:56;;;;;;;18.77;7.55;;;;;;;;;;5086513;28;20036;-66
2022/05/28 05:37:22;;;;;;;13.10;5.93;;;;;;;;;;5087356;28;20044;-66
2022/05/28 05:39:47;;;;;;;13.52;6.95;;;;;;;;;;5086776;28;20047;-66
2022/05/28 05:42:12;;;;;;;15.18;6.22;;;;;;;;;;5089845;28;20557;-66
2022/05/28 05:44:38;;;;;;;12.50;6.35;;;;;;;;;;5086427;28;20061;-66
2022/05/28 05:47:05;;;;;;;14.60;6.50;;;;;;;;;;5085565;28;20031;-67
2022/05/28 05:49:30;;;;;;;17.45;6.85;;;;;;;;;;5088486;28;20669;-66
2022/05/28 05:51:55;;;;;;;14.88;6.57;;;;;;;;;;5083496;28;20056;-66
2022/05/28 05:54:24;;;;;;;17.33;6.28;;;;;;;;;;5085405;28;20059;-66
2022/05/28 05:56:49;;;;;;;12.77;6.15;;;;;;;;;;5084139;28;20032;-66
2022/05/28 05:59:15;;;;;;;15.63;6.05;;;;;;;;;;5084698;28;20020;-66
2022/05/28 06:01:40;;;;;;;13.80;5.15;;;;;;;;;;5081112;28;20037;-66
2022/05/28 06:04:05;;;;;;;11.88;5.20;;;;;;;;;;5079245;28;20043;-66
2022/05/28 06:06:31;;;;;;;14.00;5.88;;;;;;;;;;5078263;28;20066;-66
2022/05/28 06:08:56;;;;;;;11.60;4.82;;;;;;;;;;5083851;28;20024;-66
2022/05/28 06:11:21;;;;;;;15.07;5.68;;;;;;;;;;5083459;28;20108;-66
2022/05/28 06:13:47;;;;;;;16.98;5.75;;;;;;;;;;5096689;28;20124;-66
2022/05/28 06:16:12;;;;;;;10.05;4.00;;;;;;;;;;5088225;28;20508;-66
2022/05/28 06:18:37;;;;;;;13.65;4.10;;;;;;;;;;5088576;28;20047;-66
2022/05/28 06:21:04;;;;;;;11.00;4.32;;;;;;;;;;5086845;28;20405;-66
2022/05/28 06:23:29;;;;;;;12.27;4.25;;;;;;;;;;5081838;28;20028;-66
2022/05/28 06:25:55;;;;;;;10.25;3.80;;;;;;;;;;5085048;28;20081;-66
2022/05/28 06:28:21;;;;;;;14.05;3.47;;;;;;;;;;5088295;28;20036;-66
2022/05/28 06:30:49;;;;;;;7.97;3.55;;;;;;;;;;5087146;28;20588;-66
2022/05/28 06:33:15;;;;;;;7.80;3.35;;;;;;;;;;5085759;28;20028;-66
2022/05/28 06:35:41;;;;;;;11.20;3.22;;;;;;;;;;5079859;28;20107;-65
2022/05/28 06:38:06;;;;;;;10.02;3.78;;;;;;;;;;5082424;28;20402;-65
2022/05/28 06:40:31;;;;;;;13.65;3.58;;;;;;;;;;5086256;28;20416;-65
2022/05/28 06:42:57;;;;;;;7.60;3.08;;;;;;;;;;5085569;28;20055;-65
2022/05/28 06:45:24;;;;;;;6.95;2.55;;;;;;;;;;5083895;28;20186;-65
2022/05/28 06:47:50;;;;;;;10.57;3.15;;;;;;;;;;5083296;28;20024;-65
2022/05/28 06:53:02;;;;;;;8.13;2.65;;;;;;;;;;5079955;28;20047;-65
2022/05/28 06:55:27;;;;;;;5.22;2.33;;;;;;;;;;5083858;28;20046;-66
2022/05/28 06:57:53;;;;;;;6.53;2.42;;;;;;;;;;5084264;28;20036;-66
2022/05/28 07:00:18;;;;;;;6.05;2.05;;;;;;;;;;5077150;28;20097;-65
2022/05/28 07:02:44;;;;;;;10.75;2.05;;;;;;;;;;5080479;28;20031;-65
2022/05/28 07:05:14;;;;;;;6.43;2.20;;;;;;;;;;5076507;28;20868;-65
2022/05/28 07:07:39;;;;;;;6.10;1.85;;;;;;;;;;5082123;28;20032;-65
2022/05/28 07:10:05;;;;;;;7.72;2.45;;;;;;;;;;5083673;28;20081;-65
2022/05/28 07:12:31;;;;;;;7.10;1.90;;;;;;;;;;5082342;28;20043;-65
2022/05/28 07:14:56;;;;;;;8.52;1.90;;;;;;;;;;5082141;28;20023;-65
2022/05/28 07:17:22;;;;;;;6.70;2.03;;;;;;;;;;5083882;28;20114;-65
2022/05/28 07:19:48;;;;;;;7.80;2.08;;;;;;;;;;5083347;28;20451;-65
2022/05/28 07:22:14;;;;;;;8.38;1.58;;;;;;;;;;5081488;28;20488;-63
2022/05/28 07:24:39;;;;;;;5.55;2.08;;;;;;;;;;5071524;28;20039;-65
2022/05/28 07:27:05;;;;;;;8.05;1.95;;;;;;;;;;5077571;28;20074;-66
2022/05/28 07:29:30;;;;;;;4.50;1.60;;;;;;;;;;5076085;28;20039;-65
2022/05/28 07:31:55;;;;;;;5.93;1.88;;;;;;;;;;5083816;28;20469;-65
2022/05/28 07:34:21;;;;;;;8.68;1.70;;;;;;;;;;5080120;28;20073;-66
2022/05/28 07:36:48;;;;;;;6.25;1.58;;;;;;;;;;5080698;28;20047;-65
2022/05/28 07:39:13;;;;;;;4.72;1.83;;;;;;;;;;5073204;28;20048;-66
2022/05/28 07:41:38;;;;;;;5.20;2.00;;;;;;;;;;5077085;28;20020;-65
2022/05/28 07:44:04;;;;;;;3.75;1.50;;;;;;;;;;5078612;28;20027;-64
2022/05/28 07:46:31;;;;;;;8.90;1.73;;;;;;;;;;5079895;28;20542;-66
2022/05/28 07:48:58;;;;;;;5.82;1.30;;;;;;;;;;5083108;28;20036;-66
2022/05/28 07:51:23;;;;;;;6.15;1.15;;;;;;;;;;5081871;28;20040;-66
2022/05/28 07:53:49;;;;;;;3.38;1.35;;;;;;;;;;5075665;28;20077;-66
2022/05/28 07:56:15;;;;;;;3.70;1.33;;;;;;;;;;5076586;28;20032;-65
2022/05/28 07:58:41;;;;;;;9.18;1.50;;;;;;;;;;5081477;28;20098;-66
2022/05/28 08:01:07;;;;;;;2.10;1.20;;;;;;;;;;5083251;28;20703;-66
2022/05/28 08:03:34;;;;;;;5.30;1.70;;;;;;;;;;5084231;28;20051;-66
2022/05/28 08:05:59;;;;;;;8.57;1.80;;;;;;;;;;5070976;28;20113;-66
2022/05/28 08:08:26;;;;;;;7.00;2.00;;;;;;;;;;5067808;28;20024;-66
2022/05/28 08:10:52;;;;;;;3.13;1.50;;;;;;;;;;5079790;28;20024;-66
2022/05/28 08:13:20;;;;;;;5.60;2.10;;;;;;;;;;5090029;28;20401;-66
2022/05/28 08:15:47;;;;;;;3.95;1.40;;;;;;;;;;5079863;28;20040;-65
2022/05/28 08:18:16;;;;;;;5.53;2.30;;;;;;;;;;5081769;28;20130;-66
2022/05/28 08:23:26;;;;;;;7.32;2.20;;;;;;;;;;5077423;28;20046;-66
2022/05/28 08:25:52;;;;;;;6.97;2.15;;;;;;;;;;5077348;28;20044;-66
2022/05/28 08:28:20;;;;;;;6.40;2.20;;;;;;;;;;5079645;28;20516;-65
2022/05/28 08:30:45;;;;;;;6.10;2.10;;;;;;;;;;5080576;28;20024;-65
2022/05/28 08:33:13;;;;;;;5.25;2.10;;;;;;;;;;5080456;28;20059;-66
2022/05/28 08:35:40;;;;;;;7.32;2.60;;;;;;;;;;5083521;28;20405;-66
2022/05/28 08:38:11;;;;;;;3.15;1.30;;;;;;;;;;5077409;28;20035;-66
2022/05/28 08:40:51;;;;;;;3.22;1.23;;;;;;;;;;5083296;28;20127;-66
2022/05/28 08:43:18;;;;;;;5.32;2.20;;;;;;;;;;5071992;28;20033;-66
2022/05/28 08:45:46;;;;;;;4.22;2.15;;;;;;;;;;5078215;28;20048;-66
2022/05/28 08:48:17;;;;;;;3.75;1.80;;;;;;;;;;5091881;28;20501;-66
2022/05/28 08:50:51;;;;;;;4.55;1.80;;;;;;;;;;5084540;28;20028;-66
2022/05/28 08:53:21;;;;;;;3.83;1.45;;;;;;;;;;5086575;28;20023;-67
2022/05/28 08:55:50;;;;;;;4.47;1.60;;;;;;;;;;5082200;28;20028;-68
2022/05/28 08:58:20;;;;;;;4.40;1.67;;;;;;;;;;5082982;28;20043;-67
2022/05/28 09:01:02;;;;;;;6.68;2.20;;;;;;;;;;5080051;28;20766;-68
2022/05/28 09:03:48;;;;;;;3.92;1.48;;;;;;;;;;5083297;28;20062;-67
2022/05/28 09:06:25;;;;;;;4.43;1.60;;;;;;;;;;5084857;28;20109;-68
2022/05/28 09:08:53;;;;;;;5.10;1.60;;;;;;;;;;5075511;28;20042;-68
2022/05/28 09:11:36;;;;;;;7.15;1.88;;;;;;;;;;5087920;28;20024;-66
2022/05/28 09:14:36;;;;;;;4.78;1.95;;;;;;;;;;5088974;28;20166;-67
2022/05/28 09:17:28;;;;;;;6.55;1.92;;;;;;;;;;5068177;28;20036;-67
2022/05/28 09:19:56;;;;;;;8.43;2.05;;;;;;;;;;5086704;28;20052;-67
2022/05/28 09:22:24;;;;;;;6.22;2.50;;;;;;;;;;5079148;28;20066;-67
2022/05/28 09:24:49;;;;;;;7.32;2.55;;;;;;;;;;5083246;28;20066;-67
2022/05/28 09:27:18;;;;;;;4.72;1.50;;;;;;;;;;5077347;28;20071;-67
2022/05/28 09:30:05;;;;;;;7.25;1.50;;;;;;;;;;5081087;28;20028;-67
2022/05/28 09:32:55;;;;;;;6.90;1.80;;;;;;;;;;5087687;28;20097;-67
2022/05/28 09:35:29;;;;;;;7.38;1.90;;;;;;;;;;5076989;28;20048;-67
2022/05/28 09:38:36;;;;;;;3.17;1.42;;;;;;;;;;5078611;28;20031;-67
2022/05/28 09:41:18;;;;;;;6.00;1.60;;;;;;;;;;5047204;28;20947;-67
2022/05/28 09:44:03;;;;;;;5.55;1.50;;;;;;;;;;5079215;28;20131;-67
2022/05/28 09:46:37;;;;;;;7.25;2.00;;;;;;;;;;5077116;28;20085;-67
2022/05/28 09:49:04;;;;;;;7.18;2.67;;;;;;;;;;5077577;28;20154;-67
2022/05/28 09:51:33;;;;;;;6.00;1.80;;;;;;;;;;5082662;28;20059;-67
2022/05/28 09:56:51;;;;;;;4.90;2.00;;;;;;;;;;5086281;28;20089;-67
2022/05/28 09:59:19;;;;;;;6.20;1.70;;;;;;;;;;5075132;28;20036;-67
2022/05/28 10:02:04;;;;;;;5.53;1.98;;;;;;;;;;5081796;28;20060;-67
2022/05/28 10:04:30;;;;;;;4.75;1.83;;;;;;;;;;5081190;28;20051;-67
2022/05/28 10:06:58;;;;;;;2.40;1.02;;;;;;;;;;5074792;28;20036;-67
2022/05/28 10:09:27;;;;;;;4.82;1.27;;;;;;;;;;5087897;28;20096;-67
2022/05/28 10:11:57;;;;;;;5.93;1.10;;;;;;;;;;5082641;28;20079;-67
2022/05/28 10:14:24;;;;;;;3.88;1.35;;;;;;;;;;5090759;28;20127;-67
2022/05/28 10:16:54;;;;;;;3.55;1.50;;;;;;;;;;5078967;28;20036;-67
2022/05/28 10:19:28;;;;;;;3.55;1.75;;;;;;;;;;5086729;28;20048;-67
2022/05/28 10:21:56;;;;;;;5.13;2.00;;;;;;;;;;5085173;28;20036;-67
2022/05/28 10:24:24;;;;;;;4.45;1.70;;;;;;;;;;5070674;28;20036;-66
2022/05/28 10:26:56;;;;;;;6.35;1.90;;;;;;;;;;5077218;28;20027;-67
2022/05/28 10:29:35;;;;;;;2.75;1.50;;;;;;;;;;5084125;28;20023;-67
2022/05/28 10:32:02;;;;;;;4.57;1.70;;;;;;;;;;5072529;28;20039;-67
2022/05/28 10:34:34;;;;;;;6.93;2.20;;;;;;;;;;5086825;28;20024;-66
2022/05/28 10:37:14;;;;;;;5.05;1.77;;;;;;;;;;5084012;28;20077;-67
2022/05/28 10:39:41;;;;;;;5.18;1.30;;;;;;;;;;5086721;28;20047;-67
2022/05/28 10:42:12;;;;;;;3.17;1.55;;;;;;;;;;5081734;28;20456;-67
2022/05/28 10:44:40;;;;;;;3.75;1.60;;;;;;;;;;5080960;28;20028;-67
2022/05/28 10:47:22;;;;;;;6.85;1.90;;;;;;;;;;5080606;28;20051;-67
2022/05/28 10:50:02;;;;;;;4.93;2.05;;;;;;;;;;5081025;28;20040;-67
2022/05/28 10:52:36;;;;;;;4.43;1.90;;;;;;;;;;5081038;28;20028;-67
2022/05/28 10:55:26;;;;;;;2.78;1.40;;;;;;;;;;5079717;28;20037;-67
2022/05/28 10:57:54;;;;;;;4.10;1.30;;;;;;;;;;5077574;28;20024;-67
2022/05/28 11:00:32;;;;;;;2.40;1.20;;;;;;;;;;5083852;28;20394;-67
2022/05/28 11:03:09;;;;;;;4.68;1.50;;;;;;;;;;5082912;28;20024;-67
2022/05/28 11:05:47;;;;;;;2.85;1.60;;;;;;;;;;5072698;28;20074;-67
2022/05/28 11:08:12;;;;;;;2.92;1.40;;;;;;;;;;5085558;28;20036;-67
2022/05/28 11:10:40;;;;;;;4.22;1.65;;;;;;;;;;5076726;28;20028;-65
2022/05/28 11:13:39;;;;;;;2.15;1.33;;;;;;;;;;5079130;28;20054;-66
2022/05/28 11:16:21;;;;;;;6.20;1.60;;;;;;;;;;5082021;28;20043;-66
2022/05/28 11:19:13;;;;;;;3.10;1.42;;;;;;;;;;5082981;28;20036;-67
2022/05/28 11:22:23;;;;;;;3.13;1.48;;;;;;;;;;5079310;28;20044;-67
2022/05/28 11:25:04;;;;;;;5.47;1.20;;;;;;;;;;5041411;28;20087;-68
2022/05/28 11:27:54;;;;;;;5.30;1.40;;;;;;;;;;5077238;28;20048;-67
2022/05/28 11:30:30;;;;;;;4.82;1.50;;;;;;;;;;5076972;28;20070;-67
2022/05/28 11:33:00;;;;;;;5.70;1.30;;;;;;;;;;5081527;28;20031;-67
2022/05/28 11:35:42;;;;;;;4.10;1.80;;;;;;;;;;5079486;28;20104;-67
2022/05/28 11:38:07;;;;;;;4.20;1.20;;;;;;;;;;5074524;28;20723;-67
2022/05/28 11:40:56;;;;;;;1.98;1.02;;;;;;;;;;5068868;28;20123;-68
2022/05/28 11:43:28;;;;;;;3.35;1.15;;;;;;;;;;5080079;28;20805;-68
2022/05/28 11:46:09;;;;;;;2.58;1.20;;;;;;;;;;5078534;28;20032;-68
2022/05/28 11:51:35;;;;;;;1.15;1.00;;;;;;;;;;5080901;28;20539;-68
2022/05/28 11:54:15;;;;;;;2.05;1.05;;;;;;;;;;5077877;28;20036;-67
2022/05/28 11:56:41;;;;;;;4.55;1.10;;;;;;;;;;5078821;28;20032;-68
2022/05/28 11:59:11;;;;;;;2.88;0.98;;;;;;;;;;5086047;28;20697;-67
2022/05/28 12:01:49;;;;;;;8.00;1.45;;;;;;;;;;5086014;28;20040;-67
2022/05/28 12:04:15;;;;;;;4.13;1.40;;;;;;;;;;5079812;28;20039;-68
2022/05/28 12:06:48;;;;;;;2.70;1.00;;;;;;;;;;5068294;28;20560;-68
2022/05/28 12:09:18;;;;;;;5.72;1.50;;;;;;;;;;5075144;28;20097;-68
2022/05/28 12:12:01;;;;;;;2.35;0.90;;;;;;;;;;5075729;28;20173;-67
2022/05/28 12:14:31;;;;;;;2.05;1.17;;;;;;;;;;5077868;28;20055;-68
2022/05/28 12:17:19;;;;;;;6.20;1.33;;;;;;;;;;5082391;28;21280;-68
2022/05/28 12:19:47;;;;;;;2.15;1.15;;;;;;;;;;5079544;28;20090;-67
2022/05/28 12:22:36;;;;;;;2.35;0.75;;;;;;;;;;5081311;28;20071;-68
2022/05/28 12:25:15;;;;;;;2.53;0.90;;;;;;;;;;5079323;28;20516;-68
2022/05/28 12:28:09;;;;;;;1.70;1.00;;;;;;;;;;5073680;28;20047;-67
2022/05/28 12:30:43;;;;;;;2.75;0.90;;;;;;;;;;5073058;28;20663;-67
2022/05/28 12:33:32;;;;;;;7.10;1.50;;;;;;;;;;5076000;28;20048;-67
2022/05/28 12:36:04;;;;;;;2.92;1.05;;;;;;;;;;5063770;28;20036;-67
2022/05/28 12:39:02;;;;;;;2.42;1.05;;;;;;;;;;5083817;28;20156;-66
2022/05/28 12:41:32;;;;;;;7.18;0.95;;;;;;;;;;5082748;28;20063;-66
2022/05/28 12:44:00;;;;;;;3.10;0.80;;;;;;;;;;5077313;28;20624;-67
2022/05/28 12:46:39;;;;;;;3.25;0.80;;;;;;;;;;5077348;28;20505;-66
2022/05/28 12:49:13;;;;;;;4.25;1.00;;;;;;;;;;5068019;28;20072;-66
2022/05/28 12:51:59;;;;;;;2.03;1.05;;;;;;;;;;5073291;28;20088;-65
2022/05/28 12:54:31;;;;;;;2.28;1.02;;;;;;;;;;5075807;28;20636;-66
2022/05/28 12:57:13;;;;;;;1.95;0.82;;;;;;;;;;5068659;28;20028;-66
2022/05/28 12:59:44;;;;;;;2.10;0.93;;;;;;;;;;5076882;28;20086;-65
2022/05/28 13:02:16;;;;;;;1.65;1.10;;;;;;;;;;5078993;28;20043;-66
2022/05/28 13:05:26;;;;;;;3.30;0.90;;;;;;;;;;5076450;28;20036;-66
2022/05/28 13:07:59;;;;;;;3.47;0.98;;;;;;;;;;5076262;28;20038;-66
2022/05/28 13:10:27;;;;;;;6.30;0.90;;;;;;;;;;5074161;28;20068;-66
2022/05/28 13:13:17;;;;;;;2.38;0.90;;;;;;;;;;5079077;28;20086;-66
2022/05/28 13:16:11;;;;;;;1.25;0.80;;;;;;;;;;5078196;28;20380;-66
2022/05/28 13:18:48;;;;;;;;;;;;;;;;;;5075292;28;20036;-66
2022/05/28 13:21:14;;;;;;;2.28;0.70;;;;;;;;;;5070321;28;19931;-66
2022/05/28 13:24:17;;;;;;;1.77;0.93;;;;;;;;;;5073593;28;20027;-67
2022/05/28 13:27:12;;;;;;;4.07;1.00;;;;;;;;;;5065217;28;20068;-65
2022/05/28 13:29:37;;;;;;;1.90;1.13;;;;;;;;;;5084191;28;20028;-65
2022/05/28 13:32:16;;;;;;;2.17;0.70;;;;;;;;;;5076737;28;20046;-65
2022/05/28 13:34:42;;;;;;;5.03;1.00;;;;;;;;;;5075515;28;20036;-66
2022/05/28 13:37:15;;;;;;;3.45;0.90;;;;;;;;;;5078996;28;20036;-66
2022/05/28 13:39:46;;;;;;;3.10;0.95;;;;;;;;;;5075060;28;20576;-66
2022/05/28 13:42:14;;;;;;;4.10;1.20;;;;;;;;;;5078914;28;20711;-65
2022/05/28 13:44:42;;;;;;;5.20;1.23;;;;;;;;;;5084117;28;20055;-66
2022/05/28 13:47:08;;;;;;;5.20;0.90;;;;;;;;;;5078548;28;20034;-66
2022/05/28 13:49:37;;;;;;;1.15;0.80;;;;;;;;;;5070711;28;20264;-66
2022/05/28 13:52:10;;;;;;;3.53;1.85;;;;;;;;;;5077401;28;20842;-65
2022/05/28 13:54:35;;;;;;;2.40;1.00;;;;;;;;;;5073117;28;20045;-66
2022/05/28 13:57:05;;;;;;;6.03;1.10;;;;;;;;;;5074600;28;20405;-65
2022/05/28 13:59:46;;;;;;;7.75;1.02;;;;;;;;;;5077994;28;20774;-66
2022/05/28 14:02:21;;;;;;;6.03;1.10;;;;;;;;;;5083997;28;20159;-66
2022/05/28 14:04:48;;;;;;;2.70;1.02;;;;;;;;;;5082677;28;20047;-65
2022/05/28 14:07:22;;;;;;;3.92;1.20;;;;;;;;;;5082946;28;20036;-65
2022/05/28 14:09:48;;;;;;;4.75;1.10;;;;;;;;;;5084080;28;20068;-66
2022/05/28 14:12:13;;;;;;;4.63;1.20;;;;;;;;;;5083763;28;20069;-66
2022/05/28 14:14:43;;;;;;;2.35;0.85;;;;;;;;;;5085168;28;20435;-66
2022/05/28 14:17:20;;;;;;;2.03;1.00;;;;;;;;;;5080440;28;20036;-66
2022/05/28 14:19:56;;;;;;;3.72;1.00;;;;;;;;;;5074045;28;20044;-66
2022/05/28 14:22:46;;;;;;;2.40;1.05;;;;;;;;;;5073501;28;20040;-66
2022/05/28 14:25:37;;;;;;;2.88;1.00;;;;;;;;;;5071987;28;20582;-66
2022/05/28 14:28:07;;;;;;;4.38;1.17;;;;;;;;;;5074604;28;20044;-66
2022/05/28 14:30:36;;;;;;;1.42;0.90;;;;;;;;;;5077190;28;20556;-66
2022/05/28 14:33:03;;;;;;;4.30;0.95;;;;;;;;;;5077990;28;20048;-67
2022/05/28 14:35:43;;;;;;;1.52;0.90;;;;;;;;;;5079283;28;20035;-66
2022/05/28 14:38:11;;;;;;;3.08;1.15;;;;;;;;;;5080452;28;20135;-66
2022/05/28 14:40:40;;;;;;;2.72;1.10;;;;;;;;;;5079327;28;20134;-66
2022/05/28 14:43:06;;;;;;;3.35;0.90;;;;;;;;;;5081773;28;20512;-66
2022/05/28 14:45:33;;;;;;;6.45;1.10;;;;;;;;;;5076868;28;20040;-66
2022/05/28 14:48:03;;;;;;;2.80;0.93;;;;;;;;;;5077081;28;20063;-66
2022/05/28 14:50:42;;;;;;;4.95;1.10;;;;;;;;;;5078391;28;20016;-66
2022/05/28 14:53:12;;;;;;;4.93;1.23;;;;;;;;;;5080781;28;20043;-66
2022/05/28 14:55:38;;;;;;;3.92;1.02;;;;;;;;;;5077247;28;20630;-66
2022/05/28 14:58:18;;;;;;;2.45;0.88;;;;;;;;;;5077641;28;20036;-66
2022/05/28 15:00:44;;;;;;;4.45;1.13;;;;;;;;;;5078980;28;20533;-66
2022/05/28 15:03:11;;;;;;;1.63;0.90;;;;;;;;;;5079789;28;20060;-67
2022/05/28 15:05:37;;;;;;;2.80;0.90;;;;;;;;;;5079671;28;20024;-66
2022/05/28 15:08:05;;;;;;;1.50;0.90;;;;;;;;;;5081921;28;20067;-66
2022/05/28 15:10:41;;;;;;;2.00;1.02;;;;;;;;;;5080077;28;20042;-66
2022/05/28 15:13:09;;;;;;;3.60;1.00;;;;;;;;;;5081550;28;20059;-66
2022/05/28 15:15:34;;;;;;;1.80;1.00;;;;;;;;;;5081985;28;20598;-66